Time;durP1;ratioP1;P1;durP2;ratioP2;P2;SDS_P1;SDS_P2;PMS_P1;PMS_P2;Temp;Humidity;BMP_temperature;BMP_pressure;BME280_temperature;BME280_humidity;BME280_pressure;Samples;Min_cycle;Max_cycle;Signal;HPM_P1;HPM_P2
2023/03/13 00:00:17;;;;;;;9.87;2.50;;;7.90;1.00;;;;;;5035956;28;20182;-48
2023/03/13 00:02:46;;;;;;;9.13;2.93;;;7.90;1.00;;;;;;5037187;28;20193;-45
2023/03/13 00:05:13;;;;;;;10.57;3.00;;;7.90;1.00;;;;;;5036892;28;20421;-46
2023/03/13 00:07:39;;;;;;;12.03;3.37;;;8.00;1.00;;;;;;5038588;28;20464;-46
2023/03/13 00:10:05;;;;;;;6.47;3.23;;;8.00;1.00;;;;;;5038792;28;20511;-46
2023/03/13 00:12:31;;;;;;;8.27;3.20;;;8.00;1.00;;;;;;5037462;28;20506;-47
2023/03/13 00:14:56;;;;;;;10.13;3.40;;;7.90;1.00;;;;;;5036886;28;20828;-47
2023/03/13 00:17:22;;;;;;;9.83;3.80;;;7.90;1.00;;;;;;5037270;28;20266;-44
2023/03/13 00:19:49;;;;;;;13.70;3.17;;;8.00;1.00;;;;;;5037382;28;20271;-45
2023/03/13 00:22:14;;;;;;;8.13;2.90;;;7.90;1.00;;;;;;5037837;28;20214;-45
2023/03/13 00:24:40;;;;;;;8.77;3.07;;;7.90;1.00;;;;;;5036777;28;20457;-46
2023/03/13 00:27:06;;;;;;;9.07;3.50;;;8.00;1.00;;;;;;5036703;28;20385;-46
2023/03/13 00:29:32;;;;;;;7.30;2.63;;;7.90;1.00;;;;;;5036907;28;20542;-45
2023/03/13 00:31:58;;;;;;;11.93;3.40;;;7.90;1.00;;;;;;5037026;28;20271;-47
2023/03/13 00:34:26;;;;;;;8.03;2.90;;;7.90;1.00;;;;;;5035958;28;20422;-43
2023/03/13 00:36:52;;;;;;;7.30;3.20;;;7.90;1.00;;;;;;5036945;28;20528;-46
2023/03/13 00:39:18;;;;;;;12.73;2.60;;;7.90;1.00;;;;;;5036836;28;20445;-46
2023/03/13 00:41:44;;;;;;;9.90;3.00;;;7.90;1.00;;;;;;5036853;28;20416;-44
2023/03/13 00:44:09;;;;;;;11.00;3.07;;;7.90;1.00;;;;;;5036734;28;20285;-45
2023/03/13 00:46:36;;;;;;;6.10;2.60;;;7.90;1.00;;;;;;5037387;28;20424;-45
2023/03/13 00:49:01;;;;;;;7.40;3.27;;;7.90;1.00;;;;;;5037288;28;20305;-46
2023/03/13 00:51:27;;;;;;;8.00;2.47;;;8.00;1.00;;;;;;5037830;28;20846;-45
2023/03/13 00:53:55;;;;;;;5.93;2.83;;;8.00;1.00;;;;;;5038285;28;20273;-44
2023/03/13 00:56:20;;;;;;;8.27;2.73;;;8.00;1.00;;;;;;5037734;28;20425;-45
2023/03/13 00:58:48;;;;;;;7.63;2.83;;;8.00;1.00;;;;;;5035493;28;20812;-44
2023/03/13 01:01:23;;;;;;;7.23;2.30;;;8.00;1.00;;;;;;5033915;28;20610;-46
2023/03/13 01:03:52;;;;;;;8.37;2.33;;;8.10;99.90;;;;;;5034338;28;20843;-44
2023/03/13 01:06:20;;;;;;;7.53;2.60;;;8.10;99.90;;;;;;5034875;28;20579;-45
2023/03/13 01:08:46;;;;;;;7.30;2.30;;;8.10;99.90;;;;;;5035195;28;20468;-48
2023/03/13 01:11:14;;;;;;;8.40;2.23;;;8.20;99.90;;;;;;5034609;28;20494;-44
2023/03/13 01:13:40;;;;;;;6.93;2.47;;;8.30;99.90;;;;;;5034707;28;20413;-46
2023/03/13 01:16:12;;;;;;;7.23;2.73;;;8.30;41.30;;;;;;5034599;28;20512;-46
2023/03/13 01:18:42;;;;;;;16.37;3.73;;;8.30;1.00;;;;;;5034598;28;20288;-45
2023/03/13 01:21:08;;;;;;;7.30;3.20;;;8.40;1.00;;;;;;5035116;28;20436;-44
2023/03/13 01:23:34;;;;;;;9.47;3.40;;;8.40;1.00;;;;;;5035233;28;20723;-46
2023/03/13 01:26:00;;;;;;;6.43;2.60;;;8.50;1.00;;;;;;5034227;28;20437;-46
2023/03/13 01:28:26;;;;;;;4.73;2.10;;;8.50;1.00;;;;;;5035397;28;20555;-45
2023/03/13 01:30:52;;;;;;;4.10;2.00;;;8.60;99.90;;;;;;5036187;28;20560;-46
2023/03/13 01:33:18;;;;;;;6.53;2.80;;;8.60;99.90;;;;;;5036275;28;20236;-46
2023/03/13 01:35:44;;;;;;;6.00;2.17;;;8.60;99.90;;;;;;5035101;28;20635;-46
2023/03/13 01:38:10;;;;;;;7.07;2.03;;;8.60;99.90;;;;;;5036116;28;20515;-45
2023/03/13 01:40:44;;;;;;;9.00;2.50;;;8.70;43.20;;;;;;5036513;28;20452;-47
2023/03/13 01:43:18;;;;;;;8.40;2.00;;;8.70;1.00;;;;;;5036698;28;20748;-45
2023/03/13 01:45:53;;;;;;;8.87;2.50;;;8.70;1.00;;;;;;5036844;28;20443;-48
2023/03/13 01:48:44;;;;;;;6.37;1.70;;;8.70;1.00;;;;;;5036638;28;20482;-46
2023/03/13 01:51:32;;;;;;;10.40;2.03;;;8.80;1.00;;;;;;5036928;28;20417;-45
2023/03/13 01:54:00;;;;;;;3.30;2.43;;;8.90;99.90;;;;;;5035912;28;20413;-46
2023/03/13 01:56:32;;;;;;;5.17;2.23;;;8.90;99.90;;;;;;5036496;28;20741;-45
2023/03/13 01:58:58;;;;;;;6.50;1.77;;;8.90;58.30;;;;;;5035969;28;20522;-47
2023/03/13 02:01:24;;;;;;;3.80;1.90;;;8.90;99.90;;;;;;5033627;28;20447;-45
2023/03/13 02:03:50;;;;;;;5.60;1.50;;;9.00;30.30;;;;;;5034515;28;20421;-46
2023/03/13 02:06:17;;;;;;;5.90;2.27;;;9.00;1.00;;;;;;5034260;28;20432;-44
2023/03/13 02:08:49;;;;;;;3.93;1.67;;;9.00;1.00;;;;;;5035121;28;20483;-45
2023/03/13 02:11:44;;;;;;;3.80;1.93;;;9.10;1.00;;;;;;5034593;28;20437;-44
2023/03/13 02:14:12;;;;;;;5.60;2.20;;;9.10;1.00;;;;;;5036271;28;20500;-47
2023/03/13 02:16:38;;;;;;;5.30;2.43;;;9.10;1.00;;;;;;5034708;28;20429;-45
2023/03/13 02:19:16;;;;;;;3.23;1.70;;;9.10;1.00;;;;;;5034488;28;20425;-46
2023/03/13 02:22:07;;;;;;;6.03;1.77;;;9.20;1.00;;;;;;5033207;28;20425;-46
2023/03/13 02:25:03;;;;;;;7.13;1.80;;;9.20;1.00;;;;;;5033266;28;20711;-45
2023/03/13 02:27:28;;;;;;;3.87;1.50;;;9.20;1.00;;;;;;5033729;28;20452;-45
2023/03/13 02:29:54;;;;;;;7.70;2.00;;;9.20;1.00;;;;;;5033626;28;20473;-48
2023/03/13 02:32:21;;;;;;;8.90;1.90;;;9.20;78.30;;;;;;5033817;28;20236;-46
2023/03/13 02:34:49;;;;;;;3.83;1.40;;;9.30;99.90;;;;;;5034442;28;20182;-46
2023/03/13 02:37:15;;;;;;;8.50;1.80;;;9.30;99.90;;;;;;5035000;28;20433;-46
2023/03/13 02:39:44;;;;;;;3.30;1.70;;;9.30;99.90;;;;;;5034734;28;20432;-45
2023/03/13 02:42:11;;;;;;;6.50;1.67;;;9.30;99.90;;;;;;5035110;28;20178;-47
2023/03/13 02:44:39;;;;;;;4.67;1.47;;;9.40;99.90;;;;;;5036048;28;20559;-47
2023/03/13 02:47:04;;;;;;;3.73;1.60;;;9.40;99.90;;;;;;5035809;28;20427;-46
2023/03/13 02:49:30;;;;;;;4.57;2.03;;;9.40;99.90;;;;;;5035158;28;20421;-45
2023/03/13 02:51:59;;;;;;;9.10;2.10;;;9.40;99.90;;;;;;5035664;28;20252;-47
2023/03/13 02:54:35;;;;;;;2.57;1.63;;;9.40;99.90;;;;;;5034771;28;20460;-47
2023/03/13 02:57:03;;;;;;;4.57;1.57;;;9.40;1.00;;;;;;5034816;28;20506;-48
2023/03/13 02:59:29;;;;;;;3.03;1.40;;;9.40;1.00;;;;;;5035967;28;20420;-46
2023/03/13 03:01:55;;;;;;;6.67;1.97;;;9.40;1.00;;;;;;5035521;28;20429;-48
2023/03/13 03:04:21;;;;;;;6.43;1.87;;;9.40;1.00;;;;;;5034588;28;20413;-47
2023/03/13 03:06:47;;;;;;;5.13;2.00;;;9.40;87.90;;;;;;5035939;28;20181;-48
2023/03/13 03:09:14;;;;;;;3.43;1.60;;;9.30;99.90;;;;;;5035912;28;20488;-47
2023/03/13 03:11:39;;;;;;;6.70;1.43;;;9.40;99.90;;;;;;5036014;28;20490;-45
2023/03/13 03:14:06;;;;;;;5.93;1.97;;;9.40;99.90;;;;;;5035734;28;20436;-44
2023/03/13 03:16:31;;;;;;;6.67;1.50;;;9.40;99.90;;;;;;5035747;28;20426;-46
2023/03/13 03:18:57;;;;;;;3.53;1.23;;;9.40;1.00;;;;;;5035518;28;20491;-45
2023/03/13 03:21:22;;;;;;;3.07;0.97;;;9.40;1.00;;;;;;5035575;28;20248;-46
2023/03/13 03:23:49;;;;;;;5.40;1.50;;;9.50;1.00;;;;;;5035665;28;20183;-46
2023/03/13 03:26:15;;;;;;;3.83;1.13;;;9.40;1.00;;;;;;5035475;28;20355;-45
2023/03/13 03:28:40;;;;;;;2.00;1.17;;;9.40;1.00;;;;;;5034883;28;20468;-45
2023/03/13 03:31:08;;;;;;;3.60;1.50;;;9.50;1.00;;;;;;5035292;28;20765;-46
2023/03/13 03:33:34;;;;;;;2.67;1.00;;;9.50;11.60;;;;;;5035623;28;20190;-46
2023/03/13 03:36:02;;;;;;;3.37;1.77;;;9.60;20.80;;;;;;5034414;28;20483;-45
2023/03/13 03:38:28;;;;;;;3.50;1.60;;;9.60;99.90;;;;;;5034742;28;20233;-49
2023/03/13 03:40:53;;;;;;;5.13;1.20;;;9.70;99.90;;;;;;5035706;28;20456;-45
2023/03/13 03:43:19;;;;;;;3.23;1.10;;;9.70;99.90;;;;;;5038557;28;20230;-48
2023/03/13 03:45:44;;;;;;;1.90;1.27;;;9.70;99.90;;;;;;5038176;28;20236;-47
2023/03/13 03:48:10;;;;;;;2.50;1.23;;;9.80;1.00;;;;;;5036920;28;20249;-48
2023/03/13 03:50:36;;;;;;;3.20;1.10;;;9.90;1.00;;;;;;5037256;28;20209;-47
2023/03/13 03:53:02;;;;;;;5.27;1.13;;;10.00;1.00;;;;;;5036754;28;20187;-45
2023/03/13 03:55:27;;;;;;;2.13;1.13;;;10.10;12.20;;;;;;5037679;28;20178;-44
2023/03/13 03:57:53;;;;;;;2.10;1.00;;;10.30;99.90;;;;;;5037484;28;20194;-46
2023/03/13 04:00:18;;;;;;;1.60;1.00;;;10.40;63.70;;;;;;5034630;28;20293;-48
2023/03/13 04:02:44;;;;;;;3.00;1.10;;;10.50;97.20;;;;;;5035599;28;20197;-47
2023/03/13 04:05:10;;;;;;;3.83;1.13;;;10.60;82.40;;;;;;5037438;28;20217;-47
2023/03/13 04:07:36;;;;;;;1.87;0.80;;;10.70;99.90;;;;;;5036693;28;20280;-46
2023/03/13 04:10:02;;;;;;;2.00;0.90;;;10.80;99.90;;;;;;5035463;28;20210;-46
2023/03/13 04:12:28;;;;;;;1.80;0.90;;;10.80;99.90;;;;;;5036605;28;20425;-48
2023/03/13 04:14:54;;;;;;;2.20;0.83;;;10.90;99.90;;;;;;5036594;28;20502;-45
2023/03/13 04:17:19;;;;;;;1.40;0.80;;;10.90;99.90;;;;;;5035252;28;20179;-46
2023/03/13 04:19:45;;;;;;;1.43;0.77;;;10.90;99.90;;;;;;5033318;28;20190;-46
2023/03/13 04:22:10;;;;;;;5.07;0.80;;;10.90;99.90;;;;;;5034025;28;20257;-45
2023/03/13 04:24:36;;;;;;;3.27;0.77;;;10.90;99.90;;;;;;5033939;28;20649;-48
2023/03/13 04:27:02;;;;;;;1.87;0.97;;;10.90;99.90;;;;;;5034108;28;20646;-47
2023/03/13 04:29:28;;;;;;;3.17;1.23;;;10.80;99.90;;;;;;5035234;28;20171;-46
2023/03/13 04:31:54;;;;;;;2.37;1.03;;;10.80;1.00;;;;;;5037265;28;20440;-46
2023/03/13 04:34:20;;;;;;;3.73;0.90;;;10.80;1.00;;;;;;5037586;28;20417;-48
2023/03/13 04:36:45;;;;;;;2.40;1.03;;;10.80;1.00;;;;;;5036911;28;20194;-47
2023/03/13 04:39:11;;;;;;;2.37;1.30;;;10.70;1.00;;;;;;5034644;28;20500;-48
2023/03/13 04:41:37;;;;;;;1.70;0.80;;;10.70;1.00;;;;;;5034936;28;20265;-46
2023/03/13 04:44:02;;;;;;;3.30;1.20;;;10.70;1.00;;;;;;5033956;28;20182;-47
2023/03/13 04:46:28;;;;;;;0.93;0.70;;;10.70;1.00;;;;;;5034066;28;20270;-45
2023/03/13 04:48:53;;;;;;;1.90;0.83;;;10.60;1.00;;;;;;5033997;28;20292;-48
2023/03/13 04:51:19;;;;;;;2.00;0.97;;;10.60;1.00;;;;;;5033356;28;20270;-45
2023/03/13 04:53:45;;;;;;;2.30;1.47;;;10.60;1.00;;;;;;5035820;28;20179;-47
2023/03/13 04:56:11;;;;;;;1.77;0.90;;;10.60;1.00;;;;;;5036082;28;20238;-45
2023/03/13 04:58:37;;;;;;;2.53;1.00;;;10.60;1.00;;;;;;5034469;28;20186;-49
2023/03/13 05:01:03;;;;;;;2.70;0.80;;;10.50;1.00;;;;;;5034495;28;20881;-45
2023/03/13 05:03:28;;;;;;;2.50;1.13;;;10.60;1.00;;;;;;5033273;28;20171;-48
2023/03/13 05:05:54;;;;;;;1.90;1.10;;;10.50;1.00;;;;;;5032730;28;20307;-46
2023/03/13 05:08:19;;;;;;;2.30;1.00;;;10.60;1.00;;;;;;5032065;28;20218;-47
2023/03/13 05:10:46;;;;;;;2.50;1.00;;;10.50;1.00;;;;;;5032045;28;20191;-47
2023/03/13 05:13:11;;;;;;;1.77;0.90;;;10.60;1.00;;;;;;5031805;28;20446;-46
2023/03/13 05:15:37;;;;;;;2.00;0.80;;;10.50;1.00;;;;;;5030638;28;20419;-46
2023/03/13 05:18:03;;;;;;;4.50;0.93;;;10.50;1.00;;;;;;5032470;28;20537;-45
2023/03/13 05:20:28;;;;;;;1.90;1.10;;;10.60;1.00;;;;;;5032730;28;20201;-45
2023/03/13 05:22:54;;;;;;;1.40;0.90;;;10.60;1.00;;;;;;5033469;28;20182;-46
2023/03/13 05:25:20;;;;;;;4.57;0.93;;;10.60;1.00;;;;;;5032600;28;20179;-44
2023/03/13 05:27:45;;;;;;;1.27;0.80;;;10.60;1.00;;;;;;5033941;28;20202;-45
2023/03/13 05:30:11;;;;;;;1.70;0.90;;;10.70;1.00;;;;;;5032323;28;20230;-47
2023/03/13 05:32:37;;;;;;;1.00;0.50;;;10.70;1.00;;;;;;5029932;28;20423;-45
2023/03/13 05:35:03;;;;;;;6.30;0.83;;;10.80;1.00;;;;;;5032217;28;20833;-44
2023/03/13 05:37:28;;;;;;;3.10;1.00;;;10.90;1.00;;;;;;5031904;28;20281;-46
2023/03/13 05:39:54;;;;;;;2.20;0.80;;;10.90;1.00;;;;;;5031368;28;20416;-44
2023/03/13 05:42:21;;;;;;;1.73;0.90;;;10.90;99.90;;;;;;5030440;28;20217;-46
2023/03/13 05:44:47;;;;;;;2.23;0.70;;;11.00;99.90;;;;;;5030229;28;20193;-44
2023/03/13 05:47:12;;;;;;;1.17;0.70;;;11.00;99.90;;;;;;5027466;28;20425;-43
2023/03/13 05:49:38;;;;;;;2.73;0.80;;;11.00;99.90;;;;;;5029813;28;20192;-45
2023/03/13 05:52:04;;;;;;;1.23;0.73;;;11.10;99.90;;;;;;5030439;28;20209;-45
2023/03/13 05:54:30;;;;;;;0.90;0.53;;;11.10;99.90;;;;;;5030071;28;20513;-44
2023/03/13 05:56:55;;;;;;;1.63;0.60;;;11.10;99.90;;;;;;5030845;28;20490;-46
2023/03/13 05:59:21;;;;;;;2.30;0.70;;;11.10;99.90;;;;;;5027529;28;20213;-47
2023/03/13 06:01:46;;;;;;;1.20;0.60;;;11.20;99.90;;;;;;5029421;28;20262;-44
2023/03/13 06:04:12;;;;;;;2.10;0.80;;;11.20;99.90;;;;;;5028588;28;20189;-45
2023/03/13 06:06:38;;;;;;;4.67;0.60;;;11.20;99.90;;;;;;5030571;28;20174;-45
2023/03/13 06:09:03;;;;;;;2.20;0.80;;;11.20;99.90;;;;;;5030253;28;20213;-48
2023/03/13 06:11:29;;;;;;;1.00;0.60;;;11.20;99.90;;;;;;5029343;28;20499;-46
2023/03/13 06:13:54;;;;;;;1.30;0.70;;;11.20;99.90;;;;;;5028712;28;20174;-46
2023/03/13 06:16:20;;;;;;;1.83;1.00;;;11.30;99.90;;;;;;5026491;28;20206;-45
2023/03/13 06:18:46;;;;;;;1.30;0.63;;;11.30;99.90;;;;;;5026803;28;20182;-46
2023/03/13 06:21:12;;;;;;;1.00;0.57;;;11.30;99.90;;;;;;5024811;28;20265;-44
2023/03/13 06:23:38;;;;;;;2.60;0.77;;;11.30;99.90;;;;;;5024584;28;20174;-45
2023/03/13 06:26:04;;;;;;;1.10;0.70;;;11.30;99.90;;;;;;5026485;28;20543;-46
2023/03/13 06:28:30;;;;;;;2.30;0.63;;;11.30;99.90;;;;;;5025558;28;20529;-45
2023/03/13 06:31:00;;;;;;;1.50;0.67;;;11.30;99.90;;;;;;5023864;28;20273;-47
2023/03/13 06:33:26;;;;;;;1.10;0.57;;;11.30;1.00;;;;;;5027054;28;20171;-46
2023/03/13 06:35:52;;;;;;;1.23;0.50;;;11.30;1.00;;;;;;5029192;28;20432;-47
2023/03/13 06:38:17;;;;;;;1.37;0.60;;;11.40;99.90;;;;;;5029308;28;20610;-47
2023/03/13 06:40:43;;;;;;;1.73;0.70;;;11.40;99.90;;;;;;5028573;28;20282;-45
2023/03/13 06:43:08;;;;;;;2.20;0.70;;;11.50;99.90;;;;;;5027110;28;20281;-43
2023/03/13 06:45:36;;;;;;;1.47;0.80;;;11.50;99.90;;;;;;5026830;28;20213;-47
2023/03/13 06:48:02;;;;;;;3.00;0.80;;;11.60;99.90;;;;;;5026084;28;20354;-45
2023/03/13 06:50:28;;;;;;;1.30;0.60;;;11.60;99.90;;;;;;5027114;28;20464;-44
2023/03/13 06:52:53;;;;;;;1.20;0.60;;;11.60;99.90;;;;;;5028206;28;20441;-45
2023/03/13 06:55:21;;;;;;;1.40;0.70;;;11.60;99.90;;;;;;5028507;28;20703;-46
2023/03/13 06:57:50;;;;;;;1.07;0.73;;;11.50;99.90;;;;;;5031128;28;20436;-46
2023/03/13 07:00:16;;;;;;;1.90;0.60;;;11.50;99.90;;;;;;5031012;28;20934;-46
2023/03/13 07:02:42;;;;;;;1.33;0.60;;;11.50;1.00;;;;;;5028752;28;20449;-47
2023/03/13 07:05:08;;;;;;;1.50;0.70;;;11.40;1.00;;;;;;5030368;28;20755;-46
2023/03/13 07:07:34;;;;;;;1.20;0.60;;;11.50;1.00;;;;;;5031646;28;20414;-45
2023/03/13 07:09:59;;;;;;;2.33;0.73;;;11.50;1.00;;;;;;5030845;28;20277;-48
2023/03/13 07:12:25;;;;;;;1.00;0.70;;;11.50;1.00;;;;;;5031082;28;20481;-45
2023/03/13 07:14:51;;;;;;;2.17;0.90;;;11.60;1.00;;;;;;5033763;28;20490;-49
2023/03/13 07:17:17;;;;;;;1.40;0.87;;;11.50;1.00;;;;;;5036753;28;20461;-45
2023/03/13 07:19:42;;;;;;;1.30;0.70;;;11.60;1.00;;;;;;5035640;28;20167;-46
2023/03/13 07:22:08;;;;;;;1.73;0.70;;;11.70;1.00;;;;;;5036472;28;20174;-46
2023/03/13 07:24:33;;;;;;;2.97;0.80;;;11.70;1.00;;;;;;5036119;28;20175;-44
2023/03/13 07:27:02;;;;;;;1.83;0.80;;;11.70;1.00;;;;;;5034215;28;20579;-47
2023/03/13 07:29:28;;;;;;;1.93;0.77;;;11.80;1.00;;;;;;5031545;28;20249;-47
2023/03/13 07:31:53;;;;;;;1.53;0.80;;;11.70;1.00;;;;;;5031878;28;20428;-45
2023/03/13 07:34:19;;;;;;;1.13;0.70;;;11.80;1.00;;;;;;5034026;28;20182;-48
2023/03/13 07:36:45;;;;;;;1.97;0.93;;;11.90;99.90;;;;;;5033822;28;20175;-44
2023/03/13 07:39:10;;;;;;;2.30;1.00;;;11.80;1.00;;;;;;5033552;28;20190;-47
2023/03/13 07:41:36;;;;;;;1.57;0.70;;;11.80;99.90;;;;;;5034627;28;20346;-48
2023/03/13 07:44:02;;;;;;;1.10;0.73;;;11.90;99.90;;;;;;5035205;28;20178;-45
2023/03/13 07:46:27;;;;;;;1.53;0.80;;;12.00;99.90;;;;;;5037062;28;20572;-45
2023/03/13 07:48:54;;;;;;;1.43;0.63;;;12.00;99.90;;;;;;5036191;28;20436;-48
2023/03/13 07:51:22;;;;;;;1.27;0.83;;;12.10;99.90;;;;;;5034849;28;20229;-44
2023/03/13 07:53:47;;;;;;;1.40;0.87;;;12.20;99.90;;;;;;5033084;28;20499;-47
2023/03/13 07:56:18;;;;;;;1.47;0.77;;;12.20;99.90;;;;;;5033322;28;20447;-47
2023/03/13 07:58:44;;;;;;;1.20;0.83;;;12.20;99.90;;;;;;5033339;28;20554;-45
2023/03/13 08:01:25;;;;;;;1.30;0.70;;;12.20;99.90;;;;;;5017375;28;20874;-46
2023/03/13 08:03:50;;;;;;;2.10;0.73;;;12.30;41.70;;;;;;5035298;28;20209;-47
2023/03/13 08:06:24;;;;;;;1.60;0.80;;;12.30;52.10;;;;;;5036268;28;20858;-45
2023/03/13 08:08:51;;;;;;;1.40;0.70;;;12.30;1.00;;;;;;5034778;28;20903;-47
2023/03/13 08:11:23;;;;;;;3.73;1.30;;;12.30;5.60;;;;;;5034840;28;20437;-46
2023/03/13 08:13:49;;;;;;;1.77;1.10;;;12.40;1.00;;;;;;5037378;28;20421;-45
2023/03/13 08:16:21;;;;;;;2.63;1.53;;;12.50;1.00;;;;;;5036795;28;20417;-45
2023/03/13 08:18:52;;;;;;;1.87;1.10;;;12.60;1.00;;;;;;5035356;28;20251;-48
2023/03/13 08:21:30;;;;;;;1.40;1.13;;;12.90;99.90;;;;;;5034757;28;20437;-46
2023/03/13 08:24:00;;;;;;;1.70;0.80;;;13.10;1.00;;;;;;5034512;28;20448;-45
2023/03/13 08:26:28;;;;;;;3.60;1.10;;;13.20;1.00;;;;;;5034904;28;20421;-48
2023/03/13 08:28:56;;;;;;;2.80;0.80;;;13.20;99.90;;;;;;5019352;28;20472;-45
2023/03/13 08:31:27;;;;;;;4.50;1.00;;;13.30;99.90;;;;;;5036103;28;20799;-44
2023/03/13 08:33:53;;;;;;;2.63;1.00;;;13.20;99.90;;;;;;5033998;28;20743;-46
2023/03/13 08:36:33;;;;;;;3.10;1.50;;;13.10;99.90;;;;;;5035191;28;20452;-47
2023/03/13 08:39:01;;;;;;;1.30;0.90;;;13.10;99.90;;;;;;5034481;28;20293;-47
2023/03/13 08:41:29;;;;;;;2.10;1.10;;;13.10;1.00;;;;;;5033738;28;20436;-46
2023/03/13 08:43:55;;;;;;;2.07;1.27;;;13.10;1.00;;;;;;5035416;28;20831;-46
2023/03/13 08:46:22;;;;;;;1.27;0.90;;;13.10;1.00;;;;;;5034842;28;20440;-46
2023/03/13 08:48:49;;;;;;;2.90;1.00;;;13.20;99.90;;;;;;5035143;28;20461;-45
2023/03/13 08:51:17;;;;;;;1.87;1.20;;;13.20;99.90;;;;;;5036526;28;20432;-44
2023/03/13 08:53:43;;;;;;;3.13;1.03;;;13.30;1.00;;;;;;5037319;28;21068;-47
2023/03/13 08:56:11;;;;;;;2.60;1.20;;;13.50;1.00;;;;;;5036909;28;20425;-46
2023/03/13 08:58:37;;;;;;;1.60;1.20;;;13.60;99.90;;;;;;5036850;28;20417;-45
2023/03/13 09:01:05;;;;;;;2.53;1.23;;;13.70;99.90;;;;;;5033083;28;20544;-44
2023/03/13 09:03:31;;;;;;;1.70;1.20;;;13.60;1.00;;;;;;5033781;28;20494;-44
2023/03/13 09:06:00;;;;;;;2.73;1.10;;;13.60;1.00;;;;;;5032821;28;20432;-47
2023/03/13 09:08:27;;;;;;;2.60;1.30;;;13.60;1.00;;;;;;5033388;28;20465;-43
2023/03/13 09:11:01;;;;;;;2.93;1.20;;;13.70;1.00;;;;;;5034278;28;20429;-46
2023/03/13 09:13:28;;;;;;;1.30;1.07;;;13.70;55.30;;;;;;5032976;28;20440;-48
2023/03/13 09:15:58;;;;;;;1.70;0.93;;;13.50;99.90;;;;;;5033179;28;20704;-44
2023/03/13 09:18:24;;;;;;;2.20;1.17;;;13.70;99.90;;;;;;5016051;28;20454;-46
2023/03/13 09:20:50;;;;;;;4.70;1.30;;;13.80;1.00;;;;;;5033395;28;20451;-47
2023/03/13 09:23:16;;;;;;;1.63;1.20;;;13.80;1.00;;;;;;5032746;28;20429;-45
2023/03/13 09:25:42;;;;;;;1.70;0.97;;;13.80;1.00;;;;;;5033878;28;20428;-45
2023/03/13 09:28:07;;;;;;;3.10;1.20;;;14.00;99.90;;;;;;5032403;28;20268;-44
2023/03/13 09:30:33;;;;;;;2.53;1.00;;;14.10;99.90;;;;;;5031240;28;20524;-46
2023/03/13 09:33:00;;;;;;;1.50;1.10;;;14.20;44.90;;;;;;5032080;28;20206;-46
2023/03/13 09:35:25;;;;;;;1.73;1.13;;;14.10;1.00;;;;;;5033427;28;20838;-46
2023/03/13 09:37:51;;;;;;;3.37;1.27;;;14.20;1.00;;;;;;5033331;28;20205;-43
2023/03/13 09:40:20;;;;;;;2.20;1.50;;;14.10;1.00;;;;;;5033265;28;20190;-47
2023/03/13 09:42:52;;;;;;;2.60;1.27;;;14.20;1.00;;;;;;5032838;28;20178;-44
2023/03/13 09:45:39;;;;;;;2.73;1.20;;;14.40;99.90;;;;;;5032015;28;20822;-46
2023/03/13 09:48:27;;;;;;;2.47;1.10;;;14.70;99.90;;;;;;5034303;28;20468;-48
2023/03/13 09:51:14;;;;;;;2.50;1.70;;;14.90;1.00;;;;;;5035216;28;20425;-44
2023/03/13 09:53:57;;;;;;;1.80;1.47;;;15.30;99.90;;;;;;5034467;28;20409;-44
2023/03/13 09:56:31;;;;;;;2.07;1.50;;;15.70;98.80;;;;;;5013899;28;20437;-48
2023/03/13 09:59:20;;;;;;;1.50;1.37;;;15.90;1.00;;;;;;5013533;28;20954;-44
2023/03/13 10:01:47;;;;;;;1.83;1.03;;;16.30;1.00;;;;;;5012989;28;20434;-45
2023/03/13 10:04:18;;;;;;;3.30;1.70;;;16.50;99.90;;;;;;5012697;28;20504;-49
2023/03/13 10:06:45;;;;;;;2.13;1.33;;;16.80;99.90;;;;;;5012785;28;20429;-46
2023/03/13 10:09:32;;;;;;;2.07;1.70;;;17.10;99.90;;;;;;5013250;28;20812;-46
2023/03/13 10:12:10;;;;;;;2.43;1.73;;;17.60;91.90;;;;;;5012957;28;20489;-47
2023/03/13 10:14:56;;;;;;;1.30;1.10;;;17.50;36.40;;;;;;5014247;28;20967;-45
2023/03/13 10:17:33;;;;;;;4.23;1.90;;;17.60;23.80;;;;;;5013443;28;20911;-49
2023/03/13 10:20:14;;;;;;;2.23;1.47;;;18.00;1.00;;;;;;5012297;28;20418;-49
2023/03/13 10:22:41;;;;;;;3.13;1.60;;;18.00;1.00;;;;;;5014361;28;20414;-46
2023/03/13 10:25:18;;;;;;;2.13;1.20;;;18.60;1.00;;;;;;5012736;28;20421;-45
2023/03/13 10:27:48;;;;;;;3.53;1.70;;;18.80;1.00;;;;;;5012330;28;20481;-46
2023/03/13 10:30:37;;;;;;;2.33;1.47;;;19.00;1.00;;;;;;5013107;28;20466;-45
2023/03/13 10:33:05;;;;;;;2.47;1.47;;;19.50;1.00;;;;;;5011260;28;20496;-47
2023/03/13 10:35:34;;;;;;;2.40;1.63;;;19.40;1.00;;;;;;5011425;28;20675;-49
2023/03/13 10:38:13;;;;;;;4.37;2.20;;;19.30;1.00;;;;;;5014143;28;20476;-49
2023/03/13 10:40:41;;;;;;;2.10;1.63;;;19.20;1.00;;;;;;5014013;28;20684;-47
2023/03/13 10:43:16;;;;;;;2.67;1.57;;;19.20;1.00;;;;;;5011542;28;20480;-45
2023/03/13 10:45:41;;;;;;;2.07;1.40;;;18.50;1.00;;;;;;5011150;28;20409;-46
2023/03/13 10:48:35;;;;;;;3.40;1.70;;;18.20;1.00;;;;;;5012151;28;20469;-45
2023/03/13 10:51:01;;;;;;;2.17;1.50;;;17.80;1.00;;;;;;5013474;28;20198;-47
2023/03/13 10:53:29;;;;;;;6.33;1.97;;;18.00;1.00;;;;;;5016605;28;20728;-48
2023/03/13 10:56:16;;;;;;;3.20;1.63;;;17.80;1.00;;;;;;5013642;28;20276;-47
2023/03/13 10:58:47;;;;;;;2.90;1.50;;;18.20;1.00;;;;;;5029068;28;20496;-48
2023/03/13 11:01:17;;;;;;;1.60;1.27;;;18.70;1.00;;;;;;5012543;28;20429;-46
2023/03/13 11:03:44;;;;;;;2.63;1.47;;;20.20;1.00;;;;;;5014073;28;20428;-46
2023/03/13 11:06:29;;;;;;;3.27;2.10;;;21.30;1.00;;;;;;5017851;28;20823;-47
2023/03/13 11:09:13;;;;;;;2.13;1.87;;;21.50;1.00;;;;;;5016522;28;20566;-50
2023/03/13 11:11:52;;;;;;;4.87;2.70;;;21.90;1.00;;;;;;5013527;28;20429;-47
2023/03/13 11:14:23;;;;;;;2.00;1.40;;;22.60;1.00;;;;;;5015266;28;20494;-45
2023/03/13 11:17:21;;;;;;;2.80;1.70;;;22.70;1.00;;;;;;5015657;28;20851;-48
2023/03/13 11:19:53;;;;;;;1.90;1.43;;;22.00;1.00;;;;;;5029244;28;20482;-46
2023/03/13 11:22:22;;;;;;;1.60;1.40;;;22.30;1.00;;;;;;5012864;28;20418;-47
2023/03/13 11:25:23;;;;;;;3.17;1.67;;;22.80;1.00;;;;;;5013861;28;20486;-45
2023/03/13 11:28:10;;;;;;;1.90;1.40;;;23.70;1.00;;;;;;5001575;28;21079;-45
2023/03/13 11:30:57;;;;;;;3.33;1.60;;;24.80;1.00;;;;;;5015464;28;20564;-45
2023/03/13 11:33:56;;;;;;;1.37;1.20;;;25.50;1.00;;;;;;5015707;28;20688;-45
2023/03/13 11:36:48;;;;;;;1.30;1.10;;;25.50;1.00;;;;;;5013470;28;20784;-44
2023/03/13 11:39:23;;;;;;;2.70;1.37;;;25.60;1.00;;;;;;5001753;28;20541;-44
2023/03/13 11:41:52;;;;;;;2.27;1.50;;;26.00;1.00;;;;;;5014029;28;20531;-42
2023/03/13 11:44:22;;;;;;;3.40;1.50;;;26.60;1.00;;;;;;5017648;28;20413;-43
2023/03/13 11:47:04;;;;;;;1.97;1.50;;;27.70;1.00;;;;;;5031314;28;20436;-43
2023/03/13 11:49:34;;;;;;;2.97;1.50;;;27.40;1.00;;;;;;5034027;28;20460;-44
2023/03/13 11:52:44;;;;;;;3.00;1.37;;;27.50;1.00;;;;;;5033370;28;20536;-45
2023/03/13 11:55:28;;;;;;;6.53;1.67;;;27.70;1.00;;;;;;4952523;29;20476;-45
2023/03/13 11:57:57;;;;;;;2.33;1.20;;;26.90;1.00;;;;;;4941022;29;20459;-47
2023/03/13 12:00:49;;;;;;;1.70;1.10;;;26.50;1.00;;;;;;5002317;28;20806;-45
2023/03/13 12:03:44;;;;;;;1.97;1.40;;;26.40;1.00;;;;;;5032863;28;20424;-44
2023/03/13 12:06:24;;;;;;;1.90;1.07;;;24.90;1.00;;;;;;5035142;28;20417;-47
2023/03/13 12:08:54;;;;;;;1.50;1.20;;;24.30;1.00;;;;;;5033312;28;20451;-44
2023/03/13 12:11:25;;;;;;;1.97;1.23;;;24.20;1.00;;;;;;5032876;28;20543;-46
2023/03/13 12:13:58;;;;;;;2.10;1.20;;;24.00;1.00;;;;;;5031636;28;20417;-48
2023/03/13 12:16:42;;;;;;;2.23;1.30;;;24.90;1.00;;;;;;5013506;28;20515;-45
2023/03/13 12:19:17;;;;;;;1.80;1.37;;;24.80;1.00;;;;;;5030639;28;20429;-45
2023/03/13 12:21:53;;;;;;;1.80;1.40;;;25.30;1.00;;;;;;5031480;28;20428;-46
2023/03/13 12:24:39;;;;;;;1.83;1.33;;;25.80;1.00;;;;;;5033623;28;20707;-47
2023/03/13 12:27:09;;;;;;;2.10;1.27;;;25.00;1.00;;;;;;5034062;28;20735;-48
2023/03/13 12:30:25;;;;;;;3.50;2.00;;;24.70;1.00;;;;;;5032927;28;20782;-46
2023/03/13 12:32:57;;;;;;;2.23;1.10;;;25.10;1.00;;;;;;5024397;28;20452;-50
2023/03/13 12:35:27;;;;;;;3.73;1.40;;;24.80;1.00;;;;;;5035481;28;20871;-49
2023/03/13 12:38:13;;;;;;;2.00;1.00;;;24.40;1.00;;;;;;5035042;28;20696;-46
2023/03/13 12:41:01;;;;;;;1.57;1.20;;;24.80;1.00;;;;;;5033903;28;20543;-44
2023/03/13 12:43:35;;;;;;;1.90;1.10;;;25.60;1.00;;;;;;5034522;28;20430;-48
2023/03/13 12:46:24;;;;;;;1.87;1.20;;;25.40;1.00;;;;;;5032865;28;20560;-47
2023/03/13 12:49:11;;;;;;;1.73;1.00;;;25.20;1.00;;;;;;5005485;28;20542;-46
2023/03/13 12:51:59;;;;;;;2.43;1.30;;;25.60;1.00;;;;;;5048379;28;20451;-46
2023/03/13 12:54:42;;;;;;;1.50;1.03;;;25.80;1.00;;;;;;5033724;28;20486;-46
2023/03/13 12:57:33;;;;;;;3.23;1.73;;;25.90;1.00;;;;;;5032894;28;20820;-45
2023/03/13 13:00:04;;;;;;;1.40;1.13;;;26.50;1.00;;;;;;5032125;28;20647;-43
2023/03/13 13:02:30;;;;;;;2.27;1.40;;;25.90;1.00;;;;;;5033704;28;20472;-46
2023/03/13 13:04:59;;;;;;;2.57;1.50;;;25.40;1.00;;;;;;5032698;28;20501;-46
2023/03/13 13:07:27;;;;;;;4.20;1.00;;;25.40;1.00;;;;;;5034057;28;20711;-47
2023/03/13 13:10:08;;;;;;;1.63;1.10;;;25.30;1.00;;;;;;5034587;28;20405;-45